Terminal Aerodrome Forecast
Issued by NWS Binghamton, NY

Home | Current Version | Previous Version | Text Only | Print | Product List | Glossary On
Versions: 1 2 3 4 5 6 7 8 9 10 11 12 13 14 15 16 17 18 19 20 21 22 23 24 25 26
676
FTUS41 KBGM 281125
TAFBGM
TAF
KBGM 281125Z 2812/2912 VRB03KT 3SM BR SCT005 OVC030
      TEMPO 2812/2816 1SM -SHRA BR OVC005
     FM281600 36003KT 2SM -SHRA BR OVC007
     FM282200 35007KT 5SM -SHRA BR OVC008
     FM290200 34008KT P6SM OVC008=

USA.gov is the U.S. government's official web portal to all federal, state and local government web resources and services.